Terminal Aerodrome Forecast
Issued by NWS Twin Cities, MN

Home | Current Version | Previous Version | Graphics & Text | Print | Product List | Glossary On
Versions: 1 2 3 4 5 6 7 8 9 10 11 12 13 14 15 16 17 18 19 20 21 22 23 24 25 26 27 28 29 30 31 32 33 34 35
000
FTUS43 KMPX 301400 AAB
TAFMSP
TAF AMD
KMSP 301447Z 3015/3118 36010G16KT P6SM FEW015 BKN020 BKN080
     FM302000 33007KT P6SM VCSH SCT025 BKN035
     FM310000 02005KT P6SM SCT035
     FM310300 14003KT P6SM FEW250
     FM311500 14010KT P6SM SCT080 BKN150=

USA.gov is the U.S. government's official web portal to all federal, state and local government web resources and services.